sensor_id;sensor_type;location;lat;lon;timestamp;temperature;humidity
26599;DHT22;14240;51.064;16.612;2022-07-06T00:00:32;17.00;99.90
26599;DHT22;14240;51.064;16.612;2022-07-06T00:02:58;17.00;99.90
26599;DHT22;14240;51.064;16.612;2022-07-06T00:05:23;17.00;99.90
26599;DHT22;14240;51.064;16.612;2022-07-06T00:07:49;17.00;99.90
26599;DHT22;14240;51.064;16.612;2022-07-06T00:10:15;17.00;99.90
26599;DHT22;14240;51.064;16.612;2022-07-06T00:12:41;17.00;99.90
26599;DHT22;14240;51.064;16.612;2022-07-06T00:15:06;16.90;99.90
26599;DHT22;14240;51.064;16.612;2022-07-06T00:17:32;16.90;99.90
26599;DHT22;14240;51.064;16.612;2022-07-06T00:19:58;16.90;99.90
26599;DHT22;14240;51.064;16.612;2022-07-06T00:22:23;16.90;99.90
26599;DHT22;14240;51.064;16.612;2022-07-06T00:24:49;16.90;99.90
26599;DHT22;14240;51.064;16.612;2022-07-06T00:27:15;16.80;99.90
26599;DHT22;14240;51.064;16.612;2022-07-06T00:29:40;16.80;99.90
26599;DHT22;14240;51.064;16.612;2022-07-06T00:32:10;16.70;99.90
26599;DHT22;14240;51.064;16.612;2022-07-06T00:34:36;16.80;99.90
26599;DHT22;14240;51.064;16.612;2022-07-06T00:37:01;16.70;99.90
26599;DHT22;14240;51.064;16.612;2022-07-06T00:39:27;16.70;99.90
26599;DHT22;14240;51.064;16.612;2022-07-06T00:41:55;16.70;99.90
26599;DHT22;14240;51.064;16.612;2022-07-06T00:44:21;16.70;99.90
26599;DHT22;14240;51.064;16.612;2022-07-06T00:46:47;16.60;99.90
26599;DHT22;14240;51.064;16.612;2022-07-06T00:49:12;16.60;99.90
26599;DHT22;14240;51.064;16.612;2022-07-06T00:51:58;16.60;99.90
26599;DHT22;14240;51.064;16.612;2022-07-06T00:54:25;16.60;99.90
26599;DHT22;14240;51.064;16.612;2022-07-06T00:56:52;16.60;99.90
26599;DHT22;14240;51.064;16.612;2022-07-06T00:59:18;16.50;99.90
26599;DHT22;14240;51.064;16.612;2022-07-06T01:01:43;16.50;99.90
26599;DHT22;14240;51.064;16.612;2022-07-06T01:04:09;16.50;99.90
26599;DHT22;14240;51.064;16.612;2022-07-06T01:06:35;16.50;99.90
26599;DHT22;14240;51.064;16.612;2022-07-06T01:09:01;16.50;99.90
26599;DHT22;14240;51.064;16.612;2022-07-06T01:11:27;16.40;99.90
26599;DHT22;14240;51.064;16.612;2022-07-06T01:13:54;16.40;99.90
26599;DHT22;14240;51.064;16.612;2022-07-06T01:16:21;16.40;99.90
26599;DHT22;14240;51.064;16.612;2022-07-06T01:18:47;16.40;99.90
26599;DHT22;14240;51.064;16.612;2022-07-06T01:21:14;16.30;99.90
26599;DHT22;14240;51.064;16.612;2022-07-06T01:23:44;16.30;99.90
26599;DHT22;14240;51.064;16.612;2022-07-06T01:26:12;16.30;99.90
26599;DHT22;14240;51.064;16.612;2022-07-06T01:28:38;16.30;99.90
26599;DHT22;14240;51.064;16.612;2022-07-06T01:31:04;16.30;99.90
26599;DHT22;14240;51.064;16.612;2022-07-06T01:33:29;16.30;99.90
26599;DHT22;14240;51.064;16.612;2022-07-06T01:35:55;16.30;99.90
26599;DHT22;14240;51.064;16.612;2022-07-06T01:38:21;16.30;99.90
26599;DHT22;14240;51.064;16.612;2022-07-06T01:40:47;16.30;99.90
26599;DHT22;14240;51.064;16.612;2022-07-06T01:43:12;16.30;99.90
26599;DHT22;14240;51.064;16.612;2022-07-06T01:45:38;16.30;99.90
26599;DHT22;14240;51.064;16.612;2022-07-06T01:48:07;16.20;99.90
26599;DHT22;14240;51.064;16.612;2022-07-06T01:50:32;16.20;99.90
26599;DHT22;14240;51.064;16.612;2022-07-06T01:53:01;16.20;99.90
26599;DHT22;14240;51.064;16.612;2022-07-06T01:55:27;16.10;99.90
26599;DHT22;14240;51.064;16.612;2022-07-06T01:57:52;16.10;99.90
26599;DHT22;14240;51.064;16.612;2022-07-06T02:00:18;16.00;99.90
26599;DHT22;14240;51.064;16.612;2022-07-06T02:02:43;16.00;99.90
26599;DHT22;14240;51.064;16.612;2022-07-06T02:05:09;16.00;99.90
26599;DHT22;14240;51.064;16.612;2022-07-06T02:07:35;16.30;99.90
26599;DHT22;14240;51.064;16.612;2022-07-06T02:10:00;16.00;99.90
26599;DHT22;14240;51.064;16.612;2022-07-06T02:12:26;16.00;99.90
26599;DHT22;14240;51.064;16.612;2022-07-06T02:14:52;16.00;99.90
26599;DHT22;14240;51.064;16.612;2022-07-06T02:17:17;15.90;99.90
26599;DHT22;14240;51.064;16.612;2022-07-06T02:19:43;16.00;99.90
26599;DHT22;14240;51.064;16.612;2022-07-06T02:22:08;16.00;99.90
26599;DHT22;14240;51.064;16.612;2022-07-06T02:24:34;16.20;99.90
26599;DHT22;14240;51.064;16.612;2022-07-06T02:27:00;15.90;99.90
26599;DHT22;14240;51.064;16.612;2022-07-06T02:29:25;15.90;99.90
26599;DHT22;14240;51.064;16.612;2022-07-06T02:31:51;15.90;99.90
26599;DHT22;14240;51.064;16.612;2022-07-06T02:34:17;16.00;99.90
26599;DHT22;14240;51.064;16.612;2022-07-06T02:36:42;16.00;99.90
26599;DHT22;14240;51.064;16.612;2022-07-06T02:39:08;16.00;99.90
26599;DHT22;14240;51.064;16.612;2022-07-06T02:41:33;15.90;99.90
26599;DHT22;14240;51.064;16.612;2022-07-06T02:43:59;15.90;99.90
26599;DHT22;14240;51.064;16.612;2022-07-06T02:46:25;15.90;99.90
26599;DHT22;14240;51.064;16.612;2022-07-06T02:48:50;15.90;99.90
26599;DHT22;14240;51.064;16.612;2022-07-06T02:51:16;15.90;99.90
26599;DHT22;14240;51.064;16.612;2022-07-06T02:53:41;15.80;99.90
26599;DHT22;14240;51.064;16.612;2022-07-06T02:56:07;15.90;99.90
26599;DHT22;14240;51.064;16.612;2022-07-06T02:58:33;15.90;99.90
26599;DHT22;14240;51.064;16.612;2022-07-06T03:00:58;15.90;99.90
26599;DHT22;14240;51.064;16.612;2022-07-06T03:03:24;15.90;99.90
26599;DHT22;14240;51.064;16.612;2022-07-06T03:05:50;15.90;99.90
26599;DHT22;14240;51.064;16.612;2022-07-06T03:08:15;15.90;99.90
26599;DHT22;14240;51.064;16.612;2022-07-06T03:10:41;15.90;99.90
26599;DHT22;14240;51.064;16.612;2022-07-06T03:13:07;15.90;99.90
26599;DHT22;14240;51.064;16.612;2022-07-06T03:15:32;16.00;99.90
26599;DHT22;14240;51.064;16.612;2022-07-06T03:17:58;15.90;99.90
26599;DHT22;14240;51.064;16.612;2022-07-06T03:20:23;16.00;99.90
26599;DHT22;14240;51.064;16.612;2022-07-06T03:22:49;16.10;99.90
26599;DHT22;14240;51.064;16.612;2022-07-06T03:25:14;16.10;99.90
26599;DHT22;14240;51.064;16.612;2022-07-06T03:27:40;16.20;99.90
26599;DHT22;14240;51.064;16.612;2022-07-06T03:30:06;16.20;99.90
26599;DHT22;14240;51.064;16.612;2022-07-06T03:32:32;16.20;99.90
26599;DHT22;14240;51.064;16.612;2022-07-06T03:34:58;16.30;99.90
26599;DHT22;14240;51.064;16.612;2022-07-06T03:37:23;16.30;99.90
26599;DHT22;14240;51.064;16.612;2022-07-06T03:39:49;16.40;99.90
26599;DHT22;14240;51.064;16.612;2022-07-06T03:42:14;16.30;99.90
26599;DHT22;14240;51.064;16.612;2022-07-06T03:44:40;16.30;99.90
26599;DHT22;14240;51.064;16.612;2022-07-06T03:47:06;16.30;99.90
26599;DHT22;14240;51.064;16.612;2022-07-06T03:49:31;16.30;99.90
26599;DHT22;14240;51.064;16.612;2022-07-06T03:51:57;16.20;99.90
26599;DHT22;14240;51.064;16.612;2022-07-06T03:54:22;16.20;99.90
26599;DHT22;14240;51.064;16.612;2022-07-06T03:56:48;16.30;99.90
26599;DHT22;14240;51.064;16.612;2022-07-06T03:59:14;16.30;99.90
26599;DHT22;14240;51.064;16.612;2022-07-06T04:01:40;16.30;99.90
26599;DHT22;14240;51.064;16.612;2022-07-06T04:04:05;16.30;99.90
26599;DHT22;14240;51.064;16.612;2022-07-06T04:06:31;16.30;99.90
26599;DHT22;14240;51.064;16.612;2022-07-06T04:09:00;16.30;99.90
26599;DHT22;14240;51.064;16.612;2022-07-06T04:11:25;16.30;99.90
26599;DHT22;14240;51.064;16.612;2022-07-06T04:13:51;16.30;99.90
26599;DHT22;14240;51.064;16.612;2022-07-06T04:16:17;16.30;99.90
26599;DHT22;14240;51.064;16.612;2022-07-06T04:18:42;16.30;99.90
26599;DHT22;14240;51.064;16.612;2022-07-06T04:21:08;16.30;99.90
26599;DHT22;14240;51.064;16.612;2022-07-06T04:23:33;16.30;99.90
26599;DHT22;14240;51.064;16.612;2022-07-06T04:25:59;16.30;99.90
26599;DHT22;14240;51.064;16.612;2022-07-06T04:28:25;16.30;99.90
26599;DHT22;14240;51.064;16.612;2022-07-06T04:30:50;16.30;99.90
26599;DHT22;14240;51.064;16.612;2022-07-06T04:33:16;16.40;99.90
26599;DHT22;14240;51.064;16.612;2022-07-06T04:35:42;16.40;99.90
26599;DHT22;14240;51.064;16.612;2022-07-06T04:38:08;16.30;99.90
26599;DHT22;14240;51.064;16.612;2022-07-06T04:40:33;16.30;99.90
26599;DHT22;14240;51.064;16.612;2022-07-06T04:42:59;16.30;99.90
26599;DHT22;14240;51.064;16.612;2022-07-06T04:45:25;16.30;99.90
26599;DHT22;14240;51.064;16.612;2022-07-06T04:47:51;16.30;99.90
26599;DHT22;14240;51.064;16.612;2022-07-06T04:50:16;16.20;99.90
26599;DHT22;14240;51.064;16.612;2022-07-06T04:52:42;16.20;99.90
26599;DHT22;14240;51.064;16.612;2022-07-06T04:55:08;16.20;99.90
26599;DHT22;14240;51.064;16.612;2022-07-06T04:57:35;16.20;99.90
26599;DHT22;14240;51.064;16.612;2022-07-06T05:00:02;16.20;99.90
26599;DHT22;14240;51.064;16.612;2022-07-06T05:02:28;16.20;99.90
26599;DHT22;14240;51.064;16.612;2022-07-06T05:04:54;16.20;99.90
26599;DHT22;14240;51.064;16.612;2022-07-06T05:07:19;16.20;99.90
26599;DHT22;14240;51.064;16.612;2022-07-06T05:09:45;16.20;99.90
26599;DHT22;14240;51.064;16.612;2022-07-06T05:12:10;16.20;99.90
26599;DHT22;14240;51.064;16.612;2022-07-06T05:14:36;16.20;99.90
26599;DHT22;14240;51.064;16.612;2022-07-06T05:17:02;16.20;99.90
26599;DHT22;14240;51.064;16.612;2022-07-06T05:19:28;16.20;99.90
26599;DHT22;14240;51.064;16.612;2022-07-06T05:21:53;16.20;99.90
26599;DHT22;14240;51.064;16.612;2022-07-06T05:24:19;16.20;99.90
26599;DHT22;14240;51.064;16.612;2022-07-06T05:26:45;16.20;99.90
26599;DHT22;14240;51.064;16.612;2022-07-06T05:29:11;16.20;99.90
26599;DHT22;14240;51.064;16.612;2022-07-06T05:31:36;16.20;99.90
26599;DHT22;14240;51.064;16.612;2022-07-06T05:34:02;16.20;99.90
26599;DHT22;14240;51.064;16.612;2022-07-06T05:36:27;16.30;99.90
26599;DHT22;14240;51.064;16.612;2022-07-06T05:38:53;16.30;99.90
26599;DHT22;14240;51.064;16.612;2022-07-06T05:41:19;16.40;99.90
26599;DHT22;14240;51.064;16.612;2022-07-06T05:43:45;16.40;99.90
26599;DHT22;14240;51.064;16.612;2022-07-06T05:46:10;16.40;99.90
26599;DHT22;14240;51.064;16.612;2022-07-06T05:48:36;16.50;99.90
26599;DHT22;14240;51.064;16.612;2022-07-06T05:51:20;16.50;99.90
26599;DHT22;14240;51.064;16.612;2022-07-06T05:53:46;16.60;99.90
26599;DHT22;14240;51.064;16.612;2022-07-06T05:56:12;16.60;99.90
26599;DHT22;14240;51.064;16.612;2022-07-06T05:58:38;16.70;99.90
26599;DHT22;14240;51.064;16.612;2022-07-06T06:01:03;16.70;99.90
26599;DHT22;14240;51.064;16.612;2022-07-06T06:03:29;16.70;99.90
26599;DHT22;14240;51.064;16.612;2022-07-06T06:05:55;16.80;99.90
26599;DHT22;14240;51.064;16.612;2022-07-06T06:08:20;16.80;99.90
26599;DHT22;14240;51.064;16.612;2022-07-06T06:10:46;16.80;99.90
26599;DHT22;14240;51.064;16.612;2022-07-06T06:13:11;16.80;99.90
26599;DHT22;14240;51.064;16.612;2022-07-06T06:18:18;16.80;99.90
26599;DHT22;14240;51.064;16.612;2022-07-06T06:20:45;16.90;99.90
26599;DHT22;14240;51.064;16.612;2022-07-06T06:23:10;16.90;99.90
26599;DHT22;14240;51.064;16.612;2022-07-06T06:25:38;16.90;99.90
26599;DHT22;14240;51.064;16.612;2022-07-06T06:28:06;17.00;99.90
26599;DHT22;14240;51.064;16.612;2022-07-06T06:30:33;17.10;99.90
26599;DHT22;14240;51.064;16.612;2022-07-06T06:33:25;17.20;99.90
26599;DHT22;14240;51.064;16.612;2022-07-06T06:35:51;17.40;99.90
26599;DHT22;14240;51.064;16.612;2022-07-06T06:38:19;17.60;99.90
26599;DHT22;14240;51.064;16.612;2022-07-06T06:40:45;17.80;99.90
26599;DHT22;14240;51.064;16.612;2022-07-06T06:43:10;18.00;99.90
26599;DHT22;14240;51.064;16.612;2022-07-06T06:45:36;18.10;99.90
26599;DHT22;14240;51.064;16.612;2022-07-06T06:48:02;18.30;99.90
26599;DHT22;14240;51.064;16.612;2022-07-06T06:50:28;18.40;99.90
26599;DHT22;14240;51.064;16.612;2022-07-06T06:52:53;18.60;99.90
26599;DHT22;14240;51.064;16.612;2022-07-06T06:55:19;18.70;99.90
26599;DHT22;14240;51.064;16.612;2022-07-06T06:57:45;18.90;99.90
26599;DHT22;14240;51.064;16.612;2022-07-06T07:00:12;19.10;99.90
26599;DHT22;14240;51.064;16.612;2022-07-06T07:02:38;19.20;99.90
26599;DHT22;14240;51.064;16.612;2022-07-06T07:05:04;19.40;99.90
26599;DHT22;14240;51.064;16.612;2022-07-06T07:07:30;19.60;99.90
26599;DHT22;14240;51.064;16.612;2022-07-06T07:09:55;19.70;99.90
26599;DHT22;14240;51.064;16.612;2022-07-06T07:12:21;19.80;99.90
26599;DHT22;14240;51.064;16.612;2022-07-06T07:14:47;19.90;99.90
26599;DHT22;14240;51.064;16.612;2022-07-06T07:17:13;20.10;99.90
26599;DHT22;14240;51.064;16.612;2022-07-06T07:19:39;20.20;99.90
26599;DHT22;14240;51.064;16.612;2022-07-06T07:22:04;20.30;99.90
26599;DHT22;14240;51.064;16.612;2022-07-06T07:24:30;20.40;99.90
26599;DHT22;14240;51.064;16.612;2022-07-06T07:26:56;20.50;99.90
26599;DHT22;14240;51.064;16.612;2022-07-06T07:29:21;20.60;99.90
26599;DHT22;14240;51.064;16.612;2022-07-06T07:31:47;20.70;99.90
26599;DHT22;14240;51.064;16.612;2022-07-06T07:34:13;20.80;99.90
26599;DHT22;14240;51.064;16.612;2022-07-06T07:36:38;20.90;99.90
26599;DHT22;14240;51.064;16.612;2022-07-06T07:39:04;21.00;99.90
26599;DHT22;14240;51.064;16.612;2022-07-06T07:41:30;21.00;99.90
26599;DHT22;14240;51.064;16.612;2022-07-06T07:43:56;21.10;99.90
26599;DHT22;14240;51.064;16.612;2022-07-06T07:46:22;21.20;99.90
26599;DHT22;14240;51.064;16.612;2022-07-06T07:48:47;21.30;99.90
26599;DHT22;14240;51.064;16.612;2022-07-06T07:51:13;21.40;99.90
26599;DHT22;14240;51.064;16.612;2022-07-06T07:53:39;21.40;99.90
26599;DHT22;14240;51.064;16.612;2022-07-06T07:56:05;21.60;99.70
26599;DHT22;14240;51.064;16.612;2022-07-06T07:58:30;21.60;99.50
26599;DHT22;14240;51.064;16.612;2022-07-06T08:00:56;21.70;98.70
26599;DHT22;14240;51.064;16.612;2022-07-06T08:03:22;21.80;98.20
26599;DHT22;14240;51.064;16.612;2022-07-06T08:05:48;21.90;97.80
26599;DHT22;14240;51.064;16.612;2022-07-06T08:08:14;21.90;97.90
26599;DHT22;14240;51.064;16.612;2022-07-06T08:10:40;22.00;97.20
26599;DHT22;14240;51.064;16.612;2022-07-06T08:13:06;22.00;97.30
26599;DHT22;14240;51.064;16.612;2022-07-06T08:15:33;22.10;97.50
26599;DHT22;14240;51.064;16.612;2022-07-06T08:17:59;22.20;97.30
26599;DHT22;14240;51.064;16.612;2022-07-06T08:20:25;22.20;97.10
26599;DHT22;14240;51.064;16.612;2022-07-06T08:22:51;22.30;97.00
26599;DHT22;14240;51.064;16.612;2022-07-06T08:25:16;22.40;97.00
26599;DHT22;14240;51.064;16.612;2022-07-06T08:27:43;22.50;96.70
26599;DHT22;14240;51.064;16.612;2022-07-06T08:30:09;22.50;96.70
26599;DHT22;14240;51.064;16.612;2022-07-06T08:32:40;22.60;96.40
26599;DHT22;14240;51.064;16.612;2022-07-06T08:35:06;22.70;95.90
26599;DHT22;14240;51.064;16.612;2022-07-06T08:37:32;22.70;95.80
26599;DHT22;14240;51.064;16.612;2022-07-06T08:39:57;22.80;95.60
26599;DHT22;14240;51.064;16.612;2022-07-06T08:42:29;22.90;95.10
26599;DHT22;14240;51.064;16.612;2022-07-06T08:44:55;22.90;94.60
26599;DHT22;14240;51.064;16.612;2022-07-06T08:47:26;22.90;94.80
26599;DHT22;14240;51.064;16.612;2022-07-06T08:49:51;22.90;95.00
26599;DHT22;14240;51.064;16.612;2022-07-06T08:52:18;23.00;94.80
26599;DHT22;14240;51.064;16.612;2022-07-06T08:54:44;23.00;94.90
26599;DHT22;14240;51.064;16.612;2022-07-06T08:57:10;23.10;94.80
26599;DHT22;14240;51.064;16.612;2022-07-06T08:59:35;23.20;94.70
26599;DHT22;14240;51.064;16.612;2022-07-06T09:02:03;23.30;94.60
26599;DHT22;14240;51.064;16.612;2022-07-06T09:04:29;23.10;93.90
26599;DHT22;14240;51.064;16.612;2022-07-06T09:06:57;23.30;93.80
26599;DHT22;14240;51.064;16.612;2022-07-06T09:09:24;23.40;93.50
26599;DHT22;14240;51.064;16.612;2022-07-06T09:11:50;23.50;93.60
26599;DHT22;14240;51.064;16.612;2022-07-06T09:14:17;23.50;93.50
26599;DHT22;14240;51.064;16.612;2022-07-06T09:16:44;23.60;93.70
26599;DHT22;14240;51.064;16.612;2022-07-06T09:19:11;23.70;93.90
26599;DHT22;14240;51.064;16.612;2022-07-06T09:21:37;23.80;93.20
26599;DHT22;14240;51.064;16.612;2022-07-06T09:24:10;23.90;92.70
26599;DHT22;14240;51.064;16.612;2022-07-06T09:26:36;23.90;92.90
26599;DHT22;14240;51.064;16.612;2022-07-06T09:29:02;24.00;92.50
26599;DHT22;14240;51.064;16.612;2022-07-06T09:31:27;24.10;92.70
26599;DHT22;14240;51.064;16.612;2022-07-06T09:34:01;24.20;92.40
26599;DHT22;14240;51.064;16.612;2022-07-06T09:36:44;24.30;91.40
26599;DHT22;14240;51.064;16.612;2022-07-06T09:39:27;24.30;90.90
26599;DHT22;14240;51.064;16.612;2022-07-06T09:41:54;24.30;91.10
26599;DHT22;14240;51.064;16.612;2022-07-06T09:44:22;24.30;90.10
26599;DHT22;14240;51.064;16.612;2022-07-06T09:46:50;24.20;89.50
26599;DHT22;14240;51.064;16.612;2022-07-06T09:49:20;24.20;89.90
26599;DHT22;14240;51.064;16.612;2022-07-06T09:51:53;24.20;90.00
26599;DHT22;14240;51.064;16.612;2022-07-06T09:54:19;24.20;88.50
26599;DHT22;14240;51.064;16.612;2022-07-06T09:56:47;24.20;88.60
26599;DHT22;14240;51.064;16.612;2022-07-06T09:59:23;24.30;87.10
26599;DHT22;14240;51.064;16.612;2022-07-06T10:01:55;24.30;85.70
26599;DHT22;14240;51.064;16.612;2022-07-06T10:04:22;24.40;85.40
26599;DHT22;14240;51.064;16.612;2022-07-06T10:06:49;24.40;85.70
26599;DHT22;14240;51.064;16.612;2022-07-06T10:09:16;24.40;85.20
26599;DHT22;14240;51.064;16.612;2022-07-06T10:12:03;24.50;84.00
26599;DHT22;14240;51.064;16.612;2022-07-06T10:14:33;24.50;83.80
26599;DHT22;14240;51.064;16.612;2022-07-06T10:17:01;24.50;81.70
26599;DHT22;14240;51.064;16.612;2022-07-06T10:19:29;24.60;80.20
26599;DHT22;14240;51.064;16.612;2022-07-06T10:21:57;24.50;78.10
26599;DHT22;14240;51.064;16.612;2022-07-06T10:24:24;24.40;78.70
26599;DHT22;14240;51.064;16.612;2022-07-06T10:26:50;24.30;79.50
26599;DHT22;14240;51.064;16.612;2022-07-06T10:29:16;24.30;79.20
26599;DHT22;14240;51.064;16.612;2022-07-06T10:31:45;24.20;80.60
26599;DHT22;14240;51.064;16.612;2022-07-06T10:34:12;24.30;82.20
26599;DHT22;14240;51.064;16.612;2022-07-06T10:36:41;24.30;81.10
26599;DHT22;14240;51.064;16.612;2022-07-06T10:39:08;24.50;81.50
26599;DHT22;14240;51.064;16.612;2022-07-06T10:41:59;24.50;80.50
26599;DHT22;14240;51.064;16.612;2022-07-06T10:44:26;24.60;80.00
26599;DHT22;14240;51.064;16.612;2022-07-06T10:46:54;24.50;78.40
26599;DHT22;14240;51.064;16.612;2022-07-06T10:49:20;24.50;78.80
26599;DHT22;14240;51.064;16.612;2022-07-06T10:51:46;24.50;78.20
26599;DHT22;14240;51.064;16.612;2022-07-06T10:54:12;24.40;77.90
26599;DHT22;14240;51.064;16.612;2022-07-06T10:56:46;24.30;78.80
26599;DHT22;14240;51.064;16.612;2022-07-06T10:59:17;24.20;79.90
26599;DHT22;14240;51.064;16.612;2022-07-06T11:04:36;23.90;80.80
26599;DHT22;14240;51.064;16.612;2022-07-06T11:07:12;23.80;81.90
26599;DHT22;14240;51.064;16.612;2022-07-06T11:09:38;23.80;82.30
26599;DHT22;14240;51.064;16.612;2022-07-06T11:12:17;23.70;81.60
26599;DHT22;14240;51.064;16.612;2022-07-06T11:14:44;23.70;81.60
26599;DHT22;14240;51.064;16.612;2022-07-06T11:17:11;23.60;81.50
26599;DHT22;14240;51.064;16.612;2022-07-06T11:19:37;23.60;82.30
26599;DHT22;14240;51.064;16.612;2022-07-06T11:22:08;23.60;82.80
26599;DHT22;14240;51.064;16.612;2022-07-06T11:24:37;23.70;83.70
26599;DHT22;14240;51.064;16.612;2022-07-06T11:27:04;23.70;83.90
26599;DHT22;14240;51.064;16.612;2022-07-06T11:29:33;23.90;80.70
26599;DHT22;14240;51.064;16.612;2022-07-06T11:32:01;24.00;79.60
26599;DHT22;14240;51.064;16.612;2022-07-06T11:34:33;24.10;79.10
26599;DHT22;14240;51.064;16.612;2022-07-06T11:37:02;24.20;79.40
26599;DHT22;14240;51.064;16.612;2022-07-06T11:39:30;24.20;78.10
26599;DHT22;14240;51.064;16.612;2022-07-06T11:41:56;24.20;79.20
26599;DHT22;14240;51.064;16.612;2022-07-06T11:44:22;24.20;80.10
26599;DHT22;14240;51.064;16.612;2022-07-06T11:46:48;24.30;79.50
26599;DHT22;14240;51.064;16.612;2022-07-06T11:49:14;24.30;78.90
26599;DHT22;14240;51.064;16.612;2022-07-06T11:51:41;24.30;78.60
26599;DHT22;14240;51.064;16.612;2022-07-06T11:56:54;24.20;77.90
26599;DHT22;14240;51.064;16.612;2022-07-06T11:59:28;24.10;77.90
26599;DHT22;14240;51.064;16.612;2022-07-06T12:02:02;24.00;78.10
26599;DHT22;14240;51.064;16.612;2022-07-06T12:04:30;23.90;78.60
26599;DHT22;14240;51.064;16.612;2022-07-06T12:07:01;23.90;78.80
26599;DHT22;14240;51.064;16.612;2022-07-06T12:09:30;23.90;77.40
26599;DHT22;14240;51.064;16.612;2022-07-06T12:11:56;23.90;76.80
26599;DHT22;14240;51.064;16.612;2022-07-06T12:14:22;23.90;77.70
26599;DHT22;14240;51.064;16.612;2022-07-06T12:16:51;24.00;77.30
26599;DHT22;14240;51.064;16.612;2022-07-06T12:19:17;24.10;77.20
26599;DHT22;14240;51.064;16.612;2022-07-06T12:21:45;24.20;76.80
26599;DHT22;14240;51.064;16.612;2022-07-06T12:24:17;24.30;75.40
26599;DHT22;14240;51.064;16.612;2022-07-06T12:26:43;24.40;75.50
26599;DHT22;14240;51.064;16.612;2022-07-06T12:29:11;24.40;74.50
26599;DHT22;14240;51.064;16.612;2022-07-06T12:31:43;24.30;74.30
26599;DHT22;14240;51.064;16.612;2022-07-06T12:34:15;24.20;74.60
26599;DHT22;14240;51.064;16.612;2022-07-06T12:36:58;24.10;74.90
26599;DHT22;14240;51.064;16.612;2022-07-06T12:39:28;24.10;74.20
26599;DHT22;14240;51.064;16.612;2022-07-06T12:44:24;24.20;73.40
26599;DHT22;14240;51.064;16.612;2022-07-06T12:47:01;24.30;73.10
26599;DHT22;14240;51.064;16.612;2022-07-06T12:49:27;24.40;73.20
26599;DHT22;14240;51.064;16.612;2022-07-06T12:52:10;24.50;74.00
26599;DHT22;14240;51.064;16.612;2022-07-06T12:54:44;24.60;73.40
26599;DHT22;14240;51.064;16.612;2022-07-06T12:57:13;24.70;71.70
26599;DHT22;14240;51.064;16.612;2022-07-06T13:00:08;24.70;71.40
26599;DHT22;14240;51.064;16.612;2022-07-06T13:02:34;24.80;72.20
26599;DHT22;14240;51.064;16.612;2022-07-06T13:05:12;24.80;71.30
26599;DHT22;14240;51.064;16.612;2022-07-06T13:07:47;24.80;72.00
26599;DHT22;14240;51.064;16.612;2022-07-06T13:10:14;24.90;71.50
26599;DHT22;14240;51.064;16.612;2022-07-06T13:12:40;25.00;69.80
26599;DHT22;14240;51.064;16.612;2022-07-06T13:15:08;24.90;68.50
26599;DHT22;14240;51.064;16.612;2022-07-06T13:17:34;24.90;68.20
26599;DHT22;14240;51.064;16.612;2022-07-06T13:20:03;24.80;69.10
26599;DHT22;14240;51.064;16.612;2022-07-06T13:22:29;24.80;68.40
26599;DHT22;14240;51.064;16.612;2022-07-06T13:24:54;24.80;69.00
26599;DHT22;14240;51.064;16.612;2022-07-06T13:27:20;24.80;69.10
26599;DHT22;14240;51.064;16.612;2022-07-06T13:29:46;24.80;68.50
26599;DHT22;14240;51.064;16.612;2022-07-06T13:32:11;24.80;68.00
26599;DHT22;14240;51.064;16.612;2022-07-06T13:34:37;24.70;68.00
26599;DHT22;14240;51.064;16.612;2022-07-06T13:37:04;24.60;68.50
26599;DHT22;14240;51.064;16.612;2022-07-06T13:39:31;24.50;68.50
26599;DHT22;14240;51.064;16.612;2022-07-06T13:41:57;24.50;68.40
26599;DHT22;14240;51.064;16.612;2022-07-06T13:44:23;24.60;69.30
26599;DHT22;14240;51.064;16.612;2022-07-06T13:46:49;24.70;68.00
26599;DHT22;14240;51.064;16.612;2022-07-06T13:49:16;24.70;66.90
26599;DHT22;14240;51.064;16.612;2022-07-06T13:51:41;24.60;65.70
26599;DHT22;14240;51.064;16.612;2022-07-06T13:54:08;24.60;66.40
26599;DHT22;14240;51.064;16.612;2022-07-06T13:56:33;24.60;66.20
26599;DHT22;14240;51.064;16.612;2022-07-06T13:58:59;24.60;66.20
26599;DHT22;14240;51.064;16.612;2022-07-06T14:01:25;24.60;65.80
26599;DHT22;14240;51.064;16.612;2022-07-06T14:03:51;24.60;65.30
26599;DHT22;14240;51.064;16.612;2022-07-06T14:06:17;24.60;65.00
26599;DHT22;14240;51.064;16.612;2022-07-06T14:08:43;24.60;64.40
26599;DHT22;14240;51.064;16.612;2022-07-06T14:11:09;24.60;64.00
26599;DHT22;14240;51.064;16.612;2022-07-06T14:13:36;24.50;63.90
26599;DHT22;14240;51.064;16.612;2022-07-06T14:16:03;24.40;63.30
26599;DHT22;14240;51.064;16.612;2022-07-06T14:18:29;24.30;63.60
26599;DHT22;14240;51.064;16.612;2022-07-06T14:20:54;24.40;63.60
26599;DHT22;14240;51.064;16.612;2022-07-06T14:23:21;24.30;63.00
26599;DHT22;14240;51.064;16.612;2022-07-06T14:25:47;24.30;64.10
26599;DHT22;14240;51.064;16.612;2022-07-06T14:28:14;24.30;64.20
26599;DHT22;14240;51.064;16.612;2022-07-06T14:30:41;24.30;63.60
26599;DHT22;14240;51.064;16.612;2022-07-06T14:33:08;24.40;64.10
26599;DHT22;14240;51.064;16.612;2022-07-06T14:35:38;24.40;63.40
26599;DHT22;14240;51.064;16.612;2022-07-06T14:38:05;24.40;63.00
26599;DHT22;14240;51.064;16.612;2022-07-06T14:40:31;24.40;62.50
26599;DHT22;14240;51.064;16.612;2022-07-06T14:42:57;24.40;63.60
26599;DHT22;14240;51.064;16.612;2022-07-06T14:45:23;24.40;63.20
26599;DHT22;14240;51.064;16.612;2022-07-06T14:47:49;24.40;63.20
26599;DHT22;14240;51.064;16.612;2022-07-06T14:50:15;24.30;63.10
26599;DHT22;14240;51.064;16.612;2022-07-06T14:52:40;24.30;63.20
26599;DHT22;14240;51.064;16.612;2022-07-06T14:55:06;24.30;62.50
26599;DHT22;14240;51.064;16.612;2022-07-06T14:57:32;24.20;62.70
26599;DHT22;14240;51.064;16.612;2022-07-06T14:59:58;24.30;63.10
26599;DHT22;14240;51.064;16.612;2022-07-06T15:02:24;24.30;63.20
26599;DHT22;14240;51.064;16.612;2022-07-06T15:04:49;24.30;62.70
26599;DHT22;14240;51.064;16.612;2022-07-06T15:07:15;24.20;62.20
26599;DHT22;14240;51.064;16.612;2022-07-06T15:09:41;24.20;61.70
26599;DHT22;14240;51.064;16.612;2022-07-06T15:12:07;24.10;62.20
26599;DHT22;14240;51.064;16.612;2022-07-06T15:14:32;24.00;61.60
26599;DHT22;14240;51.064;16.612;2022-07-06T15:16:58;24.00;61.60
26599;DHT22;14240;51.064;16.612;2022-07-06T15:19:24;24.00;62.00
26599;DHT22;14240;51.064;16.612;2022-07-06T15:21:50;23.90;62.20
26599;DHT22;14240;51.064;16.612;2022-07-06T15:24:16;23.90;61.70